createdAt,value
2018-01-13T00:00:18.355Z,101709.22
2018-01-13T00:01:20.813Z,101703.73
2018-01-13T00:02:23.292Z,101701.53
2018-01-13T00:03:25.758Z,101705.25
2018-01-13T00:04:28.222Z,101702.50
2018-01-13T00:05:30.703Z,101704.84
2018-01-13T00:06:33.185Z,101702.91
2018-01-13T00:07:35.663Z,101702.50
2018-01-13T00:08:38.152Z,101706.06
2018-01-13T00:09:40.621Z,101704.84
2018-01-13T00:10:43.099Z,101702.50
2018-01-13T00:11:45.580Z,101711.97
2018-01-13T00:12:48.069Z,101704.28
2018-01-13T00:13:50.556Z,101705.51
2018-01-13T00:14:53.060Z,101705.51
2018-01-13T00:15:55.526Z,101705.80
2018-01-13T00:16:58.030Z,101704.13
2018-01-13T00:18:00.535Z,101706.88
2018-01-13T00:19:02.997Z,101701.69
2018-01-13T00:20:05.457Z,101705.39
2018-01-13T00:21:07.929Z,101707.32
2018-01-13T00:22:10.448Z,101713.90
2018-01-13T00:23:13.021Z,101709.92
2018-01-13T00:24:15.524Z,101706.62
2018-01-13T00:25:17.988Z,101707.17
2018-01-13T00:26:20.468Z,101708.95
2018-01-13T00:27:22.938Z,101708.55
2018-01-13T00:28:25.416Z,101702.77
2018-01-13T00:29:27.874Z,101699.61
2018-01-13T00:30:30.360Z,101696.45
2018-01-13T00:31:32.839Z,101696.86
2018-01-13T00:32:35.303Z,101700.02
2018-01-13T00:33:37.767Z,101699.20
2018-01-13T00:34:40.244Z,101699.34
2018-01-13T00:35:42.738Z,101702.50
2018-01-13T00:36:45.212Z,101699.34
2018-01-13T00:37:47.673Z,101699.89
2018-01-13T00:38:50.152Z,101698.67
2018-01-13T00:39:52.621Z,101692.21
2018-01-13T00:40:55.092Z,101696.33
2018-01-13T00:41:57.571Z,101699.08
2018-01-13T00:43:00.035Z,101698.11
2018-01-13T00:44:02.504Z,101699.34
2018-01-13T00:45:04.972Z,101694.67
2018-01-13T00:46:07.453Z,101691.77
2018-01-13T00:47:09.917Z,101686.57
2018-01-13T00:48:12.397Z,101694.41
2018-01-13T00:49:14.874Z,101689.17
2018-01-13T00:50:17.351Z,101691.92
2018-01-13T00:51:19.813Z,101689.03
2018-01-13T00:52:22.270Z,101687.66
2018-01-13T00:53:24.738Z,101690.41
2018-01-13T00:54:27.211Z,101692.19
2018-01-13T00:55:29.673Z,101689.84
2018-01-13T00:56:32.138Z,101693.97
2018-01-13T00:57:34.616Z,101685.31
2018-01-13T00:58:37.108Z,101682.72
2018-01-13T00:59:39.579Z,101684.50
2018-01-13T01:00:42.056Z,101686.84
2018-01-13T01:01:44.541Z,101685.05
2018-01-13T01:02:47.022Z,101682.72
2018-01-13T01:03:49.535Z,101683.68
2018-01-13T01:04:51.965Z,101681.90
2018-01-13T01:05:54.439Z,101679.70
2018-01-13T01:06:56.912Z,101682.05
2018-01-13T01:07:59.369Z,101679.70
2018-01-13T01:09:01.849Z,101683.01
2018-01-13T01:10:04.352Z,101682.45
2018-01-13T01:11:06.828Z,101681.48
2018-01-13T01:12:09.296Z,101679.41
2018-01-13T01:13:11.767Z,101675.84
2018-01-13T01:14:14.229Z,101673.36
2018-01-13T01:15:16.714Z,101677.89
2018-01-13T01:16:19.169Z,101680.23
2018-01-13T01:17:21.644Z,101671.98
2018-01-13T01:18:24.371Z,101671.58
2018-01-13T01:19:26.892Z,101670.91
2018-01-13T01:20:29.350Z,101670.09
2018-01-13T01:21:31.823Z,101673.80
2018-01-13T01:22:34.296Z,101669.39
2018-01-13T01:23:36.749Z,101673.52
2018-01-13T01:24:39.205Z,101671.31
2018-01-13T01:25:41.679Z,101673.66
2018-01-13T01:26:44.176Z,101669.12
2018-01-13T01:27:46.650Z,101673.95
2018-01-13T01:28:49.115Z,101669.83
2018-01-13T01:29:51.578Z,101677.52
2018-01-13T01:30:54.042Z,101677.52
2018-01-13T01:31:56.520Z,101686.31
2018-01-13T01:32:58.992Z,101678.89
2018-01-13T01:34:01.467Z,101677.66
2018-01-13T01:35:03.929Z,101676.84
2018-01-13T01:36:06.404Z,101680.55
2018-01-13T01:37:08.862Z,101684.94
2018-01-13T01:38:11.332Z,101682.89
2018-01-13T01:39:14.748Z,101681.92
2018-01-13T01:40:17.210Z,101682.48
2018-01-13T01:41:19.670Z,101680.29
2018-01-13T01:42:22.148Z,101688.13
2018-01-13T01:43:24.631Z,101688.67
2018-01-13T01:44:27.119Z,101686.48
2018-01-13T01:45:29.592Z,101682.36
2018-01-13T01:46:32.054Z,101684.84
2018-01-13T01:47:34.510Z,101686.77
2018-01-13T01:48:36.969Z,101679.64
2018-01-13T01:49:39.448Z,101679.23
2018-01-13T01:50:41.911Z,101678.97
2018-01-13T01:51:44.385Z,101687.77
2018-01-13T01:52:46.845Z,101682.02
2018-01-13T01:53:49.301Z,101673.22
2018-01-13T01:54:51.780Z,101675.55
2018-01-13T01:55:54.243Z,101678.71
2018-01-13T01:56:56.725Z,101675.70
2018-01-13T01:57:59.197Z,101680.64
2018-01-13T01:59:01.672Z,101674.73
2018-01-13T02:00:04.157Z,101677.89
2018-01-13T02:01:06.632Z,101675.30
2018-01-13T02:02:09.099Z,101674.33
2018-01-13T02:03:11.557Z,101676.25
2018-01-13T02:04:14.028Z,101673.52
2018-01-13T02:05:16.504Z,101675.44
2018-01-13T02:06:18.980Z,101674.21
2018-01-13T02:07:21.457Z,101668.72
2018-01-13T02:08:23.931Z,101672.98
2018-01-13T02:09:26.399Z,101673.95
2018-01-13T02:10:28.855Z,101663.48
2018-01-13T02:11:31.329Z,101665.27
2018-01-13T02:12:33.789Z,101666.93
2018-01-13T02:13:36.271Z,101668.71
2018-01-13T02:14:38.834Z,101664.19
2018-01-13T02:15:41.290Z,101666.52
2018-01-13T02:16:43.765Z,101657.88
2018-01-13T02:17:46.240Z,101658.43
2018-01-13T02:18:48.701Z,101656.09
2018-01-13T02:19:51.162Z,101658.02
2018-01-13T02:20:53.624Z,101658.98
2018-01-13T02:21:56.086Z,101655.83
2018-01-13T02:22:58.558Z,101648.55
2018-01-13T02:24:01.053Z,101650.63
2018-01-13T02:25:03.514Z,101652.00
2018-01-13T02:26:05.981Z,101651.86
2018-01-13T02:27:08.444Z,101649.26
2018-01-13T02:28:10.915Z,101650.22
2018-01-13T02:29:13.388Z,101643.50
2018-01-13T02:30:15.854Z,101651.59
2018-01-13T02:31:18.334Z,101645.28
2018-01-13T02:32:20.801Z,101645.28
2018-01-13T02:33:23.258Z,101648.58
2018-01-13T02:34:25.739Z,101643.91
2018-01-13T02:35:28.217Z,101645.14
2018-01-13T02:36:30.674Z,101646.92
2018-01-13T02:37:33.145Z,101650.48
2018-01-13T02:38:35.616Z,101639.09
2018-01-13T02:39:38.070Z,101646.77
2018-01-13T02:40:40.548Z,101647.19
2018-01-13T02:41:43.011Z,101643.47
2018-01-13T02:42:45.469Z,101647.59
2018-01-13T02:43:47.935Z,101642.51
2018-01-13T02:44:50.398Z,101641.95
2018-01-13T02:45:52.870Z,101644.14
2018-01-13T02:46:55.349Z,101641.40
2018-01-13T02:47:57.827Z,101639.77
2018-01-13T02:49:00.308Z,101640.17
2018-01-13T02:50:02.788Z,101636.20
2018-01-13T02:51:05.246Z,101640.73
2018-01-13T02:52:07.720Z,101634.27
2018-01-13T02:53:10.189Z,101637.42
2018-01-13T02:54:12.660Z,101636.05
2018-01-13T02:55:15.136Z,101637.42
2018-01-13T02:56:17.611Z,101637.69
2018-01-13T02:57:20.067Z,101640.02
2018-01-13T02:58:22.526Z,101634.68
2018-01-13T02:59:24.990Z,101637.84
2018-01-13T03:00:27.468Z,101634.13
2018-01-13T03:01:29.944Z,101638.24
2018-01-13T03:02:32.412Z,101642.66
2018-01-13T03:03:34.873Z,101638.13
2018-01-13T03:04:37.348Z,101636.08
2018-01-13T03:05:39.807Z,101636.08
2018-01-13T03:06:42.280Z,101629.92
2018-01-13T03:07:44.768Z,101627.17
2018-01-13T03:08:47.230Z,101627.88
2018-01-13T03:09:49.730Z,101621.56
2018-01-13T03:10:52.203Z,101629.39
2018-01-13T03:11:54.657Z,101631.73
2018-01-13T03:12:57.117Z,101634.21
2018-01-13T03:13:59.615Z,101631.47
2018-01-13T03:15:02.092Z,101637.37
2018-01-13T03:16:04.567Z,101632.98
2018-01-13T03:17:07.026Z,101633.95
2018-01-13T03:18:10.085Z,101635.47
2018-01-13T03:19:12.542Z,101629.71
2018-01-13T03:20:15.016Z,101629.16
2018-01-13T03:21:17.478Z,101630.53
2018-01-13T03:22:19.952Z,101622.44
2018-01-13T03:23:22.428Z,101624.37
2018-01-13T03:24:24.886Z,101625.33
2018-01-13T03:25:27.367Z,101620.39
2018-01-13T03:26:29.826Z,101619.98
2018-01-13T03:27:32.281Z,101615.46
2018-01-13T03:28:34.736Z,101618.61
2018-01-13T03:29:37.215Z,101626.84
2018-01-13T03:30:39.670Z,101617.36
2018-01-13T03:31:42.176Z,101621.62
2018-01-13T03:32:44.652Z,101618.88
2018-01-13T03:33:47.136Z,101616.27
2018-01-13T03:34:49.593Z,101623.14
2018-01-13T03:35:52.080Z,101623.69
2018-01-13T03:36:54.534Z,101623.95
2018-01-13T03:37:57.008Z,101617.09
2018-01-13T03:38:59.469Z,101618.05
2018-01-13T03:40:01.934Z,101621.77
2018-01-13T03:41:04.408Z,101622.05
2018-01-13T03:42:06.881Z,101618.76
2018-01-13T03:43:09.394Z,101615.60
2018-01-13T03:44:11.881Z,101617.80
2018-01-13T03:45:14.336Z,101616.69
2018-01-13T03:46:16.797Z,101614.90
2018-01-13T03:47:19.274Z,101613.80
2018-01-13T03:48:21.730Z,101614.20
2018-01-13T03:49:24.202Z,101618.32
2018-01-13T03:50:26.752Z,101615.46
2018-01-13T03:51:29.232Z,101611.34
2018-01-13T03:52:31.712Z,101616.39
2018-01-13T03:53:34.192Z,101616.27
2018-01-13T03:54:36.645Z,101615.87
2018-01-13T03:55:39.103Z,101619.58
2018-01-13T03:56:41.576Z,101616.69
2018-01-13T03:57:44.048Z,101619.69
2018-01-13T03:58:46.524Z,101615.58
2018-01-13T03:59:49.008Z,101615.72
2018-01-13T04:00:51.476Z,101616.83
2018-01-13T04:01:53.930Z,101613.27
2018-01-13T04:02:56.403Z,101612.30
2018-01-13T04:03:58.877Z,101609.84
2018-01-13T04:05:01.352Z,101609.03
2018-01-13T04:06:03.840Z,101610.95
2018-01-13T04:07:06.309Z,101609.59
2018-01-13T04:08:09.256Z,101615.48
2018-01-13T04:09:11.752Z,101609.44
2018-01-13T04:10:14.236Z,101610.25
2018-01-13T04:11:16.726Z,101614.38
2018-01-13T04:12:19.188Z,101607.10
2018-01-13T04:13:21.650Z,101606.95
2018-01-13T04:14:24.114Z,101598.72
2018-01-13T04:15:26.585Z,101604.33
2018-01-13T04:16:29.050Z,101600.06
2018-01-13T04:17:31.523Z,101603.92
2018-01-13T04:18:34.000Z,101605.84
2018-01-13T04:19:36.472Z,101605.58
2018-01-13T04:20:38.982Z,101599.27
2018-01-13T04:21:41.487Z,101602.58
2018-01-13T04:22:43.950Z,101608.21
2018-01-13T04:23:46.424Z,101602.31
2018-01-13T04:24:48.888Z,101602.87
2018-01-13T04:25:51.360Z,101602.20
2018-01-13T04:26:53.837Z,101598.63
2018-01-13T04:27:56.333Z,101597.41
2018-01-13T04:28:58.802Z,101593.84
2018-01-13T04:30:01.601Z,101593.98
2018-01-13T04:31:04.064Z,101599.63
2018-01-13T04:32:06.538Z,101598.25
2018-01-13T04:33:09.020Z,101593.17
2018-01-13T04:34:11.492Z,101595.77
2018-01-13T04:35:13.964Z,101596.33
2018-01-13T04:36:16.440Z,101594.55
2018-01-13T04:37:18.897Z,101593.31
2018-01-13T04:38:21.380Z,101590.72
2018-01-13T04:39:23.845Z,101591.83
2018-01-13T04:40:26.336Z,101596.09
2018-01-13T04:41:28.803Z,101594.45
2018-01-13T04:42:31.261Z,101593.20
2018-01-13T04:43:33.721Z,101592.52
2018-01-13T04:44:36.188Z,101587.03
2018-01-13T04:45:38.659Z,101597.34
2018-01-13T04:46:41.114Z,101588.03
2018-01-13T04:47:43.570Z,101593.25
2018-01-13T04:48:46.055Z,101595.19
2018-01-13T04:49:48.513Z,101591.21
2018-01-13T04:50:50.986Z,101588.61
2018-01-13T04:51:53.437Z,101589.58
2018-01-13T04:52:55.885Z,101591.36
2018-01-13T04:53:58.356Z,101584.50
2018-01-13T04:55:00.818Z,101585.72
2018-01-13T04:56:03.291Z,101590.66
2018-01-13T04:57:05.767Z,101586.54
2018-01-13T04:58:09.044Z,101585.16
2018-01-13T04:59:11.513Z,101586.39
2018-01-13T05:00:14.090Z,101582.83
2018-01-13T05:01:16.576Z,101581.05
2018-01-13T05:02:19.038Z,101584.20
2018-01-13T05:03:21.521Z,101583.94
2018-01-13T05:04:23.981Z,101587.09
2018-01-13T05:05:26.445Z,101581.34
2018-01-13T05:06:28.916Z,101581.89
2018-01-13T05:07:31.383Z,101582.45
2018-01-13T05:08:33.846Z,101583.97
2018-01-13T05:09:36.320Z,101590.42
2018-01-13T05:10:38.802Z,101584.52
2018-01-13T05:11:41.276Z,101584.26
2018-01-13T05:12:43.734Z,101581.11
2018-01-13T05:13:46.206Z,101581.66
2018-01-13T05:14:48.676Z,101585.10
2018-01-13T05:15:51.157Z,101583.73
2018-01-13T05:16:53.615Z,101589.36
2018-01-13T05:17:56.095Z,101587.58
2018-01-13T05:18:58.568Z,101593.08
2018-01-13T05:20:01.037Z,101594.56
2018-01-13T05:21:03.493Z,101594.56
2018-01-13T05:22:05.950Z,101589.07
2018-01-13T05:23:08.417Z,101588.14
2018-01-13T05:24:10.869Z,101595.81
2018-01-13T05:25:13.329Z,101592.66
2018-01-13T05:26:15.800Z,101590.33
2018-01-13T05:27:18.257Z,101586.21
2018-01-13T05:28:20.717Z,101592.52
2018-01-13T05:29:23.178Z,101587.84
2018-01-13T05:30:25.642Z,101584.41
2018-01-13T05:31:28.116Z,101584.81
2018-01-13T05:32:30.573Z,101586.45
2018-01-13T05:33:33.067Z,101581.22
2018-01-13T05:34:35.545Z,101581.08
2018-01-13T05:35:38.019Z,101587.53
2018-01-13T05:36:40.476Z,101583.41
2018-01-13T05:37:42.948Z,101585.19
2018-01-13T05:38:45.419Z,101586.30
2018-01-13T05:39:47.887Z,101580.41
2018-01-13T05:40:50.349Z,101586.45
2018-01-13T05:41:52.831Z,101583.84
2018-01-13T05:42:55.339Z,101581.11
2018-01-13T05:43:57.772Z,101585.36
2018-01-13T05:45:00.228Z,101585.92
2018-01-13T05:46:02.715Z,101583.73
2018-01-13T05:47:05.170Z,101578.94
2018-01-13T05:48:07.902Z,101584.02
2018-01-13T05:49:10.388Z,101584.95
2018-01-13T05:50:12.855Z,101588.66
2018-01-13T05:51:15.309Z,101586.47
2018-01-13T05:52:17.793Z,101580.02
2018-01-13T05:53:20.257Z,101585.92
2018-01-13T05:54:22.743Z,101581.80
2018-01-13T05:55:25.239Z,101579.47
2018-01-13T05:56:27.716Z,101578.65
2018-01-13T05:57:30.181Z,101579.47
2018-01-13T05:58:32.651Z,101580.02
2018-01-13T05:59:35.125Z,101577.69
2018-01-13T06:00:37.587Z,101583.17
2018-01-13T06:01:40.062Z,101578.09
2018-01-13T06:02:42.538Z,101584.14
2018-01-13T06:03:44.992Z,101583.17
2018-01-13T06:04:47.464Z,101586.33
2018-01-13T06:05:49.938Z,101581.80
2018-01-13T06:06:52.418Z,101580.98
2018-01-13T06:07:54.904Z,101574.67
2018-01-13T06:08:57.372Z,101580.58
2018-01-13T06:09:59.856Z,101578.38
2018-01-13T06:11:02.323Z,101577.42
2018-01-13T06:12:04.808Z,101579.76
2018-01-13T06:13:07.272Z,101581.56
2018-01-13T06:14:09.737Z,101582.79
2018-01-13T06:15:12.221Z,101578.67
2018-01-13T06:16:14.685Z,101580.05
2018-01-13T06:17:17.160Z,101581.02
2018-01-13T06:18:19.614Z,101578.00
2018-01-13T06:19:22.090Z,101583.08
2018-01-13T06:20:24.556Z,101576.52
2018-01-13T06:21:27.015Z,101580.22
2018-01-13T06:22:29.487Z,101582.70
2018-01-13T06:23:31.941Z,101586.96
2018-01-13T06:24:34.400Z,101576.13
2018-01-13T06:25:36.852Z,101579.84
2018-01-13T06:26:39.315Z,101579.02
2018-01-13T06:27:41.815Z,101578.20
2018-01-13T06:28:44.283Z,101577.94
2018-01-13T06:29:46.754Z,101576.56
2018-01-13T06:30:49.215Z,101581.23
2018-01-13T06:31:51.679Z,101582.75
2018-01-13T06:32:54.133Z,101583.30
2018-01-13T06:33:56.591Z,101580.97
2018-01-13T06:34:59.046Z,101584.27
2018-01-13T06:36:01.506Z,101579.89
2018-01-13T06:37:03.992Z,101580.41
2018-01-13T06:38:06.470Z,101581.92
2018-01-13T06:39:08.926Z,101582.89
2018-01-13T06:40:11.386Z,101578.77
2018-01-13T06:41:13.842Z,101575.22
2018-01-13T06:42:16.335Z,101578.92
2018-01-13T06:43:18.809Z,101580.70
2018-01-13T06:44:21.342Z,101577.00
2018-01-13T06:45:23.811Z,101577.00
2018-01-13T06:46:26.290Z,101574.39
2018-01-13T06:47:28.759Z,101582.22
2018-01-13T06:48:31.213Z,101578.52
2018-01-13T06:49:33.731Z,101579.73
2018-01-13T06:50:36.204Z,101578.92
2018-01-13T06:51:38.657Z,101578.10
2018-01-13T06:52:41.140Z,101579.73
2018-01-13T06:53:43.596Z,101576.59
2018-01-13T06:54:46.072Z,101578.37
2018-01-13T06:55:48.544Z,101574.25
2018-01-13T06:56:51.009Z,101582.89
2018-01-13T06:57:53.490Z,101572.73
2018-01-13T06:58:55.964Z,101579.33
2018-01-13T06:59:58.425Z,101572.47
2018-01-13T07:01:00.888Z,101572.17
2018-01-13T07:02:03.341Z,101580.41
2018-01-13T07:03:05.809Z,101574.66
2018-01-13T07:04:08.341Z,101575.62
2018-01-13T07:05:10.786Z,101567.53
2018-01-13T07:06:13.264Z,101571.23
2018-01-13T07:07:15.740Z,101573.16
2018-01-13T07:08:18.220Z,101576.20
2018-01-13T07:09:20.678Z,101577.98
2018-01-13T07:10:23.148Z,101574.01
2018-01-13T07:11:25.613Z,101573.59
2018-01-13T07:12:28.083Z,101580.45
2018-01-13T07:13:30.537Z,101577.30
2018-01-13T07:14:33.001Z,101581.42
2018-01-13T07:15:35.454Z,101580.05
2018-01-13T07:16:37.908Z,101582.94
2018-01-13T07:17:40.369Z,101576.48
2018-01-13T07:18:42.826Z,101583.48
2018-01-13T07:19:45.296Z,101577.59
2018-01-13T07:20:47.768Z,101575.81
2018-01-13T07:21:50.254Z,101582.67
2018-01-13T07:22:52.718Z,101585.01
2018-01-13T07:23:55.196Z,101586.37
2018-01-13T07:24:57.661Z,101585.56
2018-01-13T07:26:00.137Z,101578.29
2018-01-13T07:27:02.597Z,101589.27
2018-01-13T07:28:05.071Z,101587.08
2018-01-13T07:29:07.530Z,101586.26
2018-01-13T07:30:09.993Z,101589.00
2018-01-13T07:31:12.458Z,101585.03
2018-01-13T07:32:14.922Z,101585.58
2018-01-13T07:33:17.385Z,101581.88
2018-01-13T07:34:19.857Z,101585.17
2018-01-13T07:35:22.313Z,101583.95
2018-01-13T07:36:24.788Z,101577.64
2018-01-13T07:37:27.242Z,101580.91
2018-01-13T07:38:29.706Z,101579.98
2018-01-13T07:39:32.197Z,101585.17
2018-01-13T07:40:34.659Z,101583.66
2018-01-13T07:41:37.126Z,101584.61
2018-01-13T07:42:39.600Z,101577.09
2018-01-13T07:43:42.083Z,101587.48
2018-01-13T07:44:44.537Z,101578.15
2018-01-13T07:45:46.993Z,101584.16
2018-01-13T07:46:49.481Z,101589.09
2018-01-13T07:47:51.947Z,101587.98
2018-01-13T07:48:54.402Z,101587.17
2018-01-13T07:49:56.885Z,101586.91
2018-01-13T07:50:59.360Z,101589.12
2018-01-13T07:52:01.835Z,101590.92
2018-01-13T07:53:04.305Z,101591.36
2018-01-13T07:54:06.758Z,101597.10
2018-01-13T07:55:09.240Z,101590.39
2018-01-13T07:56:11.715Z,101590.53
2018-01-13T07:57:14.187Z,101593.01
2018-01-13T07:58:16.682Z,101600.56
2018-01-13T07:59:19.155Z,101596.62
2018-01-13T08:00:21.769Z,101586.05
2018-01-13T08:01:24.226Z,101599.38
2018-01-13T08:02:26.704Z,101600.37
2018-01-13T08:03:29.215Z,101591.59
2018-01-13T08:04:31.670Z,101592.39
2018-01-13T08:05:34.134Z,101595.33
2018-01-13T08:06:36.612Z,101599.05
2018-01-13T08:07:39.096Z,101599.23
2018-01-13T08:08:41.579Z,101592.13
2018-01-13T08:09:44.058Z,101597.40
2018-01-13T08:10:46.539Z,101599.20
2018-01-13T08:11:49.028Z,101597.45
2018-01-13T08:12:51.517Z,101599.09
2018-01-13T08:13:54.031Z,101603.78
2018-01-13T08:14:56.508Z,101600.64
2018-01-13T08:15:58.986Z,101600.92
2018-01-13T08:17:01.470Z,101602.58
2018-01-13T08:18:03.962Z,101604.38
2018-01-13T08:19:06.460Z,101601.78
2018-01-13T08:20:08.960Z,101607.09
2018-01-13T08:21:11.425Z,101609.98
2018-01-13T08:22:13.900Z,101601.64
2018-01-13T08:23:16.370Z,101606.84
2018-01-13T08:24:18.856Z,101611.09
2018-01-13T08:25:21.329Z,101612.33
2018-01-13T08:26:23.820Z,101614.23
2018-01-13T08:27:26.330Z,101617.23
2018-01-13T08:28:28.820Z,101622.73
2018-01-13T08:29:31.312Z,101619.16
2018-01-13T08:30:33.786Z,101621.21
2018-01-13T08:31:36.256Z,101624.89
2018-01-13T08:32:38.734Z,101626.80
2018-01-13T08:33:41.220Z,101623.23
2018-01-13T08:34:43.699Z,101629.23
2018-01-13T08:35:46.188Z,101626.77
2018-01-13T08:36:48.669Z,101630.08
2018-01-13T08:37:51.175Z,101624.31
2018-01-13T08:38:53.665Z,101624.44
2018-01-13T08:39:56.152Z,101624.56
2018-01-13T08:40:58.649Z,101628.53
2018-01-13T08:42:01.133Z,101627.70
2018-01-13T08:43:03.615Z,101620.27
2018-01-13T08:44:06.119Z,101632.05
2018-01-13T08:45:08.604Z,101617.61
2018-01-13T08:46:11.100Z,101629.66
2018-01-13T08:47:13.571Z,101632.73
2018-01-13T08:48:16.051Z,101625.15
2018-01-13T08:49:18.523Z,101630.84
2018-01-13T08:50:21.024Z,101625.55
2018-01-13T08:51:23.498Z,101636.93
2018-01-13T08:52:25.972Z,101633.58
2018-01-13T08:53:28.434Z,101635.45
2018-01-13T08:54:30.893Z,101634.36
2018-01-13T08:55:33.376Z,101642.69
2018-01-13T08:56:35.850Z,101636.76
2018-01-13T08:57:38.347Z,101639.63
2018-01-13T08:58:40.846Z,101633.03
2018-01-13T08:59:43.323Z,101639.31
2018-01-13T09:00:45.908Z,101644.69
2018-01-13T09:01:48.392Z,101639.45
2018-01-13T09:02:51.675Z,101647.95
2018-01-13T09:03:54.148Z,101656.45
2018-01-13T09:04:56.617Z,101655.23
2018-01-13T09:05:59.850Z,101657.83
2018-01-13T09:07:02.363Z,101641.36
2018-01-13T09:08:04.863Z,101649.04
2018-01-13T09:09:07.334Z,101646.30
2018-01-13T09:10:09.809Z,101645.73
2018-01-13T09:11:12.269Z,101645.88
2018-01-13T09:12:14.749Z,101640.39
2018-01-13T09:13:17.234Z,101644.25
2018-01-13T09:14:19.712Z,101646.99
2018-01-13T09:15:22.188Z,101647.55
2018-01-13T09:16:24.669Z,101642.61
2018-01-13T09:17:27.148Z,101653.73
2018-01-13T09:18:29.637Z,101654.30
2018-01-13T09:19:32.112Z,101652.92
2018-01-13T09:20:34.581Z,101661.27
2018-01-13T09:21:37.067Z,101653.47
2018-01-13T09:22:39.534Z,101655.38
2018-01-13T09:23:42.040Z,101660.14
2018-01-13T09:24:44.523Z,101657.89
2018-01-13T09:25:47.099Z,101663.89
2018-01-13T09:26:49.582Z,101664.77
2018-01-13T09:27:52.033Z,101659.75
2018-01-13T09:28:54.536Z,101662.26
2018-01-13T09:29:56.989Z,101664.42
2018-01-13T09:30:59.462Z,101656.56
2018-01-13T09:32:01.956Z,101666.11
2018-01-13T09:33:04.922Z,101650.97
2018-01-13T09:34:07.435Z,101660.58
2018-01-13T09:35:09.909Z,101660.99
2018-01-13T09:36:12.381Z,101658.66
2018-01-13T09:37:14.844Z,101657.84
2018-01-13T09:38:17.310Z,101658.24
2018-01-13T09:39:19.798Z,101660.99
2018-01-13T09:40:22.360Z,101661.55
2018-01-13T09:41:24.833Z,101661.70
2018-01-13T09:42:27.338Z,101665.55
2018-01-13T09:43:29.899Z,101663.48
2018-01-13T09:44:32.479Z,101657.45
2018-01-13T09:45:34.948Z,101660.91
2018-01-13T09:46:37.410Z,101663.54
2018-01-13T09:47:39.884Z,101669.33
2018-01-13T09:48:42.338Z,101671.26
2018-01-13T09:49:44.832Z,101670.33
2018-01-13T09:50:47.297Z,101666.09
2018-01-13T09:51:49.750Z,101667.34
2018-01-13T09:52:52.206Z,101664.74
2018-01-13T09:53:54.672Z,101666.96
2018-01-13T09:54:57.149Z,101660.95
2018-01-13T09:55:59.636Z,101669.89
2018-01-13T09:57:02.097Z,101667.43
2018-01-13T09:58:04.579Z,101675.97
2018-01-13T09:59:07.034Z,101664.05
2018-01-13T10:00:09.510Z,101668.02
2018-01-13T10:01:11.984Z,101665.82
2018-01-13T10:02:14.456Z,101668.16
2018-01-13T10:03:16.929Z,101667.34
2018-01-13T10:04:19.386Z,101662.26
2018-01-13T10:05:21.876Z,101659.25
2018-01-13T10:06:24.356Z,101668.02
2018-01-13T10:07:26.831Z,101666.23
2018-01-13T10:08:29.303Z,101664.34
2018-01-13T10:09:31.780Z,101666.38
2018-01-13T10:10:34.272Z,101659.72
2018-01-13T10:11:36.734Z,101665.53
2018-01-13T10:12:39.218Z,101663.36
2018-01-13T10:13:41.696Z,101656.46
2018-01-13T10:14:44.155Z,101667.06
2018-01-13T10:15:46.638Z,101664.68
2018-01-13T10:16:49.098Z,101668.44
2018-01-13T10:17:51.572Z,101661.38
2018-01-13T10:18:54.045Z,101659.27
2018-01-13T10:19:56.508Z,101653.77
2018-01-13T10:20:59.010Z,101650.58
2018-01-13T10:22:01.470Z,101649.46
2018-01-13T10:23:03.936Z,101648.38
2018-01-13T10:24:06.468Z,101647.56
2018-01-13T10:25:08.948Z,101637.64
2018-01-13T10:26:11.434Z,101641.92
2018-01-13T10:27:13.908Z,101644.00
2018-01-13T10:28:16.394Z,101642.22
2018-01-13T10:29:18.864Z,101638.23
2018-01-13T10:30:21.340Z,101636.45
2018-01-13T10:31:23.850Z,101630.70
2018-01-13T10:32:26.310Z,101637.57
2018-01-13T10:33:28.780Z,101642.55
2018-01-13T10:34:31.238Z,101644.07
2018-01-13T10:35:33.690Z,101631.14
2018-01-13T10:36:36.186Z,101643.41
2018-01-13T10:37:38.664Z,101638.32
2018-01-13T10:38:41.148Z,101638.88
2018-01-13T10:39:43.624Z,101644.67
2018-01-13T10:40:46.202Z,101641.80
2018-01-13T10:41:48.705Z,101643.06
2018-01-13T10:42:51.176Z,101644.18
2018-01-13T10:43:53.660Z,101641.88
2018-01-13T10:44:56.152Z,101635.86
2018-01-13T10:45:58.618Z,101637.79
2018-01-13T10:47:01.108Z,101632.56
2018-01-13T10:48:03.588Z,101638.20
2018-01-13T10:49:06.045Z,101631.48
2018-01-13T10:50:08.518Z,101627.66
2018-01-13T10:51:10.970Z,101628.77
2018-01-13T10:52:14.360Z,101635.38
2018-01-13T10:53:16.841Z,101631.55
2018-01-13T10:54:19.346Z,101625.94
2018-01-13T10:55:21.796Z,101622.11
2018-01-13T10:56:24.254Z,101627.34
2018-01-13T10:57:26.739Z,101628.16
2018-01-13T10:58:29.194Z,101629.39
2018-01-13T10:59:31.655Z,101625.27
2018-01-13T11:00:34.128Z,101619.25
2018-01-13T11:01:36.595Z,101620.11
2018-01-13T11:02:39.084Z,101617.50
2018-01-13T11:03:41.538Z,101621.37
2018-01-13T11:04:43.997Z,101611.23
2018-01-13T11:05:46.458Z,101617.13
2018-01-13T11:06:48.910Z,101610.82
2018-01-13T11:07:51.400Z,101615.09
2018-01-13T11:08:53.859Z,101614.01
2018-01-13T11:09:56.316Z,101617.58
2018-01-13T11:10:58.773Z,101611.55
2018-01-13T11:12:01.252Z,101614.45
2018-01-13T11:13:03.742Z,101614.45
2018-01-13T11:14:06.220Z,101611.30
2018-01-13T11:15:08.673Z,101604.98
2018-01-13T11:16:11.139Z,101607.47
2018-01-13T11:17:13.597Z,101604.72
2018-01-13T11:18:16.070Z,101608.84
2018-01-13T11:19:18.548Z,101607.73
2018-01-13T11:20:21.020Z,101604.16
2018-01-13T11:21:23.496Z,101607.06
2018-01-13T11:22:25.975Z,101606.77
2018-01-13T11:23:28.479Z,101600.72
2018-01-13T11:24:30.952Z,101609.80
2018-01-13T11:25:33.414Z,101604.98
2018-01-13T11:26:35.878Z,101600.56
2018-01-13T11:27:38.334Z,101599.60
2018-01-13T11:28:40.826Z,101606.61
2018-01-13T11:29:43.295Z,101599.75
2018-01-13T11:30:45.761Z,101600.86
2018-01-13T11:31:48.217Z,101598.00
2018-01-13T11:32:50.692Z,101594.17
2018-01-13T11:33:53.172Z,101599.41
2018-01-13T11:34:55.643Z,101592.28
2018-01-13T11:35:58.121Z,101590.38
2018-01-13T11:37:00.591Z,101585.03
2018-01-13T11:38:03.071Z,101580.25
2018-01-13T11:39:05.569Z,101589.19
2018-01-13T11:40:08.039Z,101582.73
2018-01-13T11:41:10.498Z,101586.15
2018-01-13T11:42:12.968Z,101588.22
2018-01-13T11:43:15.447Z,101581.73
2018-01-13T11:44:17.925Z,101580.80
2018-01-13T11:45:20.404Z,101577.53
2018-01-13T11:46:22.893Z,101580.42
2018-01-13T11:47:25.368Z,101585.63
2018-01-13T11:48:27.836Z,101571.08
2018-01-13T11:49:30.352Z,101571.78
2018-01-13T11:50:32.823Z,101582.24
2018-01-13T11:51:35.285Z,101581.57
2018-01-13T11:52:37.760Z,101578.71